Time;durP1;ratioP1;P1;durP2;ratioP2;P2;SDS_P1;SDS_P2;PMS_P1;PMS_P2;Temp;Humidity;BMP_temperature;BMP_pressure;BME280_temperature;BME280_humidity;BME280_pressure;Samples;Min_cycle;Max_cycle;Signal;HPM_P1;HPM_P2
2022/08/18 00:01:16;;;;;;;13.50;12.13;;;23.10;99.70;;;23.39;65.37;100484.47;5020761;28;20450;-72
2022/08/18 00:03:47;;;;;;;14.50;12.43;;;23.10;99.70;;;23.32;65.88;100489.56;5018261;28;20495;-73
2022/08/18 00:06:27;;;;;;;13.80;12.40;;;23.10;99.90;;;23.15;66.46;100483.69;5013593;28;20453;-71
2022/08/18 00:08:59;;;;;;;18.70;11.63;;;23.00;99.90;;;23.12;66.43;100490.63;5013848;28;20441;-72
2022/08/18 00:11:31;;;;;;;12.97;11.70;;;22.90;99.90;;;23.19;66.19;100487.53;5015619;28;20444;-72
2022/08/18 00:14:14;;;;;;;13.00;10.97;;;22.90;99.90;;;23.21;66.03;100490.78;5013190;28;20488;-73
2022/08/18 00:16:54;;;;;;;13.30;11.97;;;22.90;99.90;;;23.24;65.81;100484.66;5020879;28;21005;-73
2022/08/18 00:19:25;;;;;;;13.00;11.53;;;23.00;99.90;;;23.32;65.58;100481.25;5015787;28;20992;-72
2022/08/18 00:22:19;;;;;;;13.20;11.93;;;23.00;99.90;;;23.36;65.42;100479.56;5011049;28;20554;-72
2022/08/18 00:24:52;;;;;;;14.63;13.30;;;23.10;99.90;;;23.35;65.00;100477.91;5003813;28;20879;-72
2022/08/18 00:27:23;;;;;;;16.70;12.60;;;23.10;99.90;;;23.30;65.18;100477.97;5008712;28;20468;-72
2022/08/18 00:29:59;;;;;;;13.73;12.43;;;23.10;99.90;;;23.34;64.87;100477.06;5009271;28;20472;-72
2022/08/18 00:32:36;;;;;;;12.80;11.50;;;23.10;99.60;;;23.31;65.25;100474.91;5015598;28;20446;-72
2022/08/18 00:35:08;;;;;;;12.23;11.00;;;23.10;99.60;;;23.37;64.91;100470.16;5011721;28;20436;-71
2022/08/18 00:37:37;;;;;;;12.63;11.33;;;23.10;99.40;;;23.32;65.06;100470.22;5011647;28;20483;-72
2022/08/18 00:40:10;;;;;;;12.27;10.97;;;23.10;99.10;;;23.21;65.33;100468.72;5017913;28;20421;-72
2022/08/18 00:42:45;;;;;;;12.03;10.83;;;23.00;99.40;;;23.15;65.38;100467.13;5015158;28;20873;-71
2022/08/18 00:45:21;;;;;;;14.17;12.80;;;22.90;99.80;;;23.24;65.30;100468.09;5007642;28;20510;-72
2022/08/18 00:47:52;;;;;;;12.63;11.33;;;22.90;99.70;;;23.20;64.97;100464.31;5013248;28;20461;-72
2022/08/18 00:50:28;;;;;;;12.17;11.07;;;22.90;99.40;;;23.11;65.55;100471.59;5009114;28;20420;-72
2022/08/18 00:53:02;;;;;;;13.93;12.50;;;22.90;99.80;;;23.13;65.25;100470.19;5011717;28;20534;-71
2022/08/18 00:55:33;;;;;;;13.33;11.20;;;22.90;99.60;;;23.10;65.46;100467.19;5010454;28;21319;-72
2022/08/18 00:58:10;;;;;;;13.73;12.33;;;22.90;99.80;;;23.11;65.22;100464.13;5011692;28;20448;-73
2022/08/18 01:00:39;;;;;;;13.50;12.07;;;22.90;99.60;;;23.08;65.36;100459.22;5005018;28;20448;-74
2022/08/18 01:03:16;;;;;;;13.67;12.27;;;22.80;99.50;;;22.98;65.48;100458.53;5006868;28;20493;-73
2022/08/18 01:06:01;;;;;;;16.63;11.90;;;22.80;99.80;;;22.94;65.88;100463.81;5011489;28;20449;-72
2022/08/18 01:08:31;;;;;;;15.70;12.07;;;22.70;99.90;;;22.95;65.57;100454.41;5016662;28;20456;-72
2022/08/18 01:11:02;;;;;;;12.93;11.53;;;22.70;99.90;;;22.91;65.50;100453.34;5019975;28;20445;-72
2022/08/18 01:13:34;;;;;;;14.03;12.53;;;22.70;99.90;;;22.89;65.56;100450.91;5021116;28;20480;-71
2022/08/18 01:21:49;;;;;;;13.70;11.83;;;22.60;99.90;;;22.77;66.16;100450.50;5016802;28;20441;-72
2022/08/18 01:21:52;;;;;;;13.40;12.03;;;22.60;99.90;;;22.67;66.23;100453.31;5011603;28;20545;-72
2022/08/18 01:25:58;;;;;;;16.57;11.83;;;22.50;99.90;;;22.59;66.41;100447.63;5014078;28;20526;-72
2022/08/18 01:27:17;;;;;;;14.80;13.43;;;22.40;99.90;;;22.63;66.13;100454.19;5012825;28;20448;-72
2022/08/18 01:29:47;;;;;;;13.80;12.40;;;22.40;99.90;;;22.52;66.57;100456.25;5013996;28;20571;-72
2022/08/18 01:32:22;;;;;;;15.43;11.40;;;22.40;99.90;;;22.45;67.10;100455.78;5011217;28;20473;-72
2022/08/18 01:34:53;;;;;;;15.07;12.63;;;22.30;99.90;;;22.44;66.73;100460.47;5010576;28;21002;-72
2022/08/18 01:37:24;;;;;;;13.53;12.13;;;22.20;99.90;;;22.42;66.60;100451.66;5017762;28;20495;-72
2022/08/18 01:39:55;;;;;;;13.43;12.07;;;22.20;99.90;;;22.45;66.34;100450.28;5011604;28;21014;-71
2022/08/18 01:42:44;;;;;;;13.83;12.43;;;22.20;99.90;;;22.66;65.47;100450.84;5011428;28;20438;-72
2022/08/18 01:45:16;;;;;;;13.30;11.97;;;22.30;99.90;;;22.54;66.03;100454.03;5012712;28;20998;-71
2022/08/18 01:47:45;;;;;;;13.50;12.07;;;22.30;99.90;;;22.48;65.91;100449.66;5016300;28;20451;-72
2022/08/18 01:50:18;;;;;;;14.53;13.13;;;22.20;99.90;;;22.45;65.84;100447.50;5015599;28;20503;-72
2022/08/18 01:52:48;;;;;;;14.60;13.20;;;22.20;99.90;;;22.40;66.13;100445.63;5012228;28;20458;-72
2022/08/18 01:55:19;;;;;;;13.90;12.40;;;22.20;99.90;;;22.36;66.13;100435.47;5013191;28;20476;-71
2022/08/18 01:57:48;;;;;;;14.20;12.80;;;22.20;99.90;;;22.30;66.13;100447.66;5013354;28;20448;-71
2022/08/18 02:00:19;;;;;;;13.00;11.70;;;22.10;99.90;;;22.30;66.49;100434.69;5016266;28;20531;-73
2022/08/18 02:02:50;;;;;;;12.63;11.43;;;22.10;99.90;;;22.23;66.43;100436.13;5006914;28;20449;-72
2022/08/18 02:05:36;;;;;;;11.93;10.73;;;22.10;99.90;;;22.12;66.96;100434.63;5014474;28;20445;-73
2022/08/18 02:08:07;;;;;;;13.47;11.50;;;22.00;99.90;;;22.10;67.17;100432.97;5009684;28;20905;-73
2022/08/18 02:10:38;;;;;;;13.30;11.87;;;22.00;99.90;;;22.20;67.04;100420.19;5015307;28;20444;-72
2022/08/18 02:13:08;;;;;;;11.37;10.20;;;22.00;99.90;;;22.29;66.40;100418.44;5011965;28;20469;-72
2022/08/18 02:15:37;;;;;;;12.60;11.43;;;22.00;99.90;;;22.37;65.75;100420.56;5018697;28;20445;-72
2022/08/18 02:18:15;;;;;;;13.93;12.60;;;22.00;99.90;;;22.35;65.54;100417.28;5012761;28;20452;-71
2022/08/18 02:21:09;;;;;;;13.30;12.00;;;22.10;99.90;;;22.27;66.09;100412.41;5009256;28;20766;-72
2022/08/18 02:23:41;;;;;;;14.40;13.07;;;22.00;99.90;;;22.18;66.69;100412.22;5037059;28;20463;-72
2022/08/18 02:26:23;;;;;;;14.03;12.47;;;22.00;99.90;;;22.14;66.51;100411.16;5024106;28;20494;-72
2022/08/18 02:28:52;;;;;;;12.77;11.27;;;21.90;99.90;;;22.16;66.14;100405.34;5019312;28;20419;-71
2022/08/18 02:31:25;;;;;;;14.43;12.90;;;21.90;99.90;;;22.09;66.91;100417.53;5009609;28;20466;-72
2022/08/18 02:33:55;;;;;;;14.93;13.33;;;21.90;99.90;;;22.08;66.72;100413.13;5014905;28;20499;-72
2022/08/18 02:36:25;;;;;;;13.63;12.23;;;21.90;99.90;;;22.03;66.90;100421.44;5017445;28;20422;-72
2022/08/18 02:38:54;;;;;;;17.33;12.70;;;21.90;99.90;;;21.95;66.85;100419.31;5014876;28;20531;-71
2022/08/18 02:41:30;;;;;;;14.07;12.67;;;21.80;99.90;;;21.85;67.63;100419.38;5014490;28;20545;-72
2022/08/18 02:43:59;;;;;;;13.40;12.10;;;21.70;99.90;;;21.79;68.10;100419.69;5020361;28;20826;-72
2022/08/18 02:46:29;;;;;;;15.23;13.70;;;21.60;99.90;;;21.79;68.24;100425.19;5012830;28;20885;-72
2022/08/18 02:49:00;;;;;;;16.07;13.70;;;21.60;99.90;;;21.78;68.89;100424.41;5016670;28;20926;-72
2022/08/18 02:51:29;;;;;;;15.10;13.50;;;21.60;99.90;;;21.75;68.32;100435.97;5015840;28;20870;-72
2022/08/18 02:53:59;;;;;;;14.33;13.03;;;21.60;99.90;;;21.69;68.46;100428.84;5011392;28;20476;-72
2022/08/18 02:56:31;;;;;;;16.17;13.90;;;21.60;99.90;;;21.62;68.98;100431.13;5022099;28;20444;-73
2022/08/18 02:59:15;;;;;;;15.23;13.60;;;21.50;99.90;;;21.57;69.36;100429.22;5013920;28;20444;-72
2022/08/18 03:01:47;;;;;;;14.43;12.97;;;21.50;99.90;;;21.56;69.11;100424.00;5004872;28;20407;-72
2022/08/18 03:04:20;;;;;;;13.13;11.83;;;21.40;99.90;;;21.52;69.16;100417.44;5010711;28;20453;-71
2022/08/18 03:07:00;;;;;;;16.27;14.20;;;21.40;99.90;;;21.49;69.58;100418.84;5014178;28;20447;-72
2022/08/18 03:09:31;;;;;;;13.83;12.33;;;21.40;99.90;;;21.48;69.89;100413.59;5010010;28;20466;-72
2022/08/18 03:12:03;;;;;;;15.63;13.40;;;21.30;99.90;;;21.45;70.35;100411.41;5015775;28;20947;-72
2022/08/18 03:14:34;;;;;;;15.63;14.13;;;21.30;99.90;;;21.40;69.94;100423.28;5009312;28;20454;-72
2022/08/18 03:17:08;;;;;;;15.47;13.40;;;21.30;99.90;;;21.34;70.61;100416.19;5008965;28;20453;-72
2022/08/18 03:19:37;;;;;;;16.10;12.90;;;21.20;99.90;;;21.32;70.98;100431.31;5007369;28;20438;-72
2022/08/18 03:22:09;;;;;;;14.20;12.50;;;21.20;99.90;;;21.32;70.45;100425.81;5009110;28;20491;-72
2022/08/18 03:24:57;;;;;;;18.80;12.70;;;21.20;99.90;;;21.46;69.30;100419.38;5008265;28;20457;-72
2022/08/18 03:27:28;;;;;;;14.43;12.97;;;21.20;99.90;;;21.56;68.81;100429.50;5015785;28;20486;-73
2022/08/18 03:29:57;;;;;;;13.60;12.20;;;21.30;99.90;;;21.62;68.34;100428.38;5010782;28;20400;-72
2022/08/18 03:32:26;;;;;;;12.60;11.40;;;21.30;99.90;;;21.71;67.55;100429.41;5016337;28;20486;-72
2022/08/18 03:34:55;;;;;;;18.40;14.17;;;21.40;99.90;;;21.81;66.51;100434.81;5014356;28;20451;-72
2022/08/18 03:37:24;;;;;;;14.83;13.33;;;21.50;99.90;;;21.82;66.59;100430.97;5009188;28;20924;-73
2022/08/18 03:39:54;;;;;;;13.50;11.60;;;21.60;99.90;;;21.79;66.10;100428.78;5013985;28;20915;-73
2022/08/18 03:42:23;;;;;;;14.80;13.13;;;21.60;99.90;;;21.81;65.92;100425.75;5019940;28;20416;-73
2022/08/18 03:44:53;;;;;;;16.53;14.80;;;21.60;99.90;;;21.75;65.56;100430.47;5018564;28;20557;-72
2022/08/18 03:47:22;;;;;;;13.90;12.20;;;21.60;99.90;;;21.73;66.23;100432.69;5011583;28;20590;-71
2022/08/18 03:49:52;;;;;;;14.20;12.73;;;21.50;99.90;;;21.84;65.97;100427.91;5009806;28;20445;-72
2022/08/18 03:52:22;;;;;;;17.17;11.67;;;21.60;99.90;;;21.87;65.87;100430.94;5013969;28;20448;-71
2022/08/18 03:54:51;;;;;;;14.60;13.27;;;21.60;99.90;;;21.95;65.74;100430.34;5017830;28;20803;-71
2022/08/18 03:57:21;;;;;;;15.20;12.90;;;21.60;99.90;;;21.97;65.51;100433.63;5010352;28;20423;-71
2022/08/18 03:59:49;;;;;;;15.33;13.80;;;21.70;99.90;;;22.04;65.51;100441.56;5012375;28;20443;-72
2022/08/18 04:02:20;;;;;;;15.30;13.87;;;21.70;99.90;;;21.93;64.89;100432.53;5014949;28;20444;-72
2022/08/18 04:04:49;;;;;;;13.73;12.40;;;21.70;98.20;;;21.86;65.40;100437.53;5017801;28;20812;-72
2022/08/18 04:07:19;;;;;;;14.80;13.30;;;21.70;99.30;;;21.87;65.49;100433.69;5011264;28;20528;-72
2022/08/18 04:09:48;;;;;;;16.33;13.77;;;21.70;99.30;;;21.94;65.17;100439.69;5005350;28;20830;-72
2022/08/18 04:12:17;;;;;;;15.43;13.80;;;21.70;99.50;;;22.06;64.61;100437.41;5009424;28;20452;-73
2022/08/18 04:14:49;;;;;;;13.70;12.20;;;21.80;99.00;;;22.13;64.49;100448.06;5005422;28;20973;-72
2022/08/18 04:17:23;;;;;;;15.30;13.80;;;21.80;98.00;;;22.20;64.53;100447.75;5010813;28;20449;-72
2022/08/18 04:19:55;;;;;;;14.77;12.90;;;21.80;98.20;;;22.23;63.96;100447.16;5010801;28;20472;-72
2022/08/18 04:22:26;;;;;;;14.60;13.20;;;21.90;97.40;;;22.37;63.63;100448.94;5008233;28;20412;-72
2022/08/18 04:24:55;;;;;;;14.40;12.90;;;22.00;97.00;;;22.48;62.89;100452.44;5008983;28;20467;-72
2022/08/18 04:27:25;;;;;;;14.30;12.90;;;22.10;95.40;;;22.50;63.00;100461.25;5010838;28;20579;-72
2022/08/18 04:29:55;;;;;;;14.87;13.37;;;22.10;94.50;;;22.59;63.22;100462.25;5010131;28;20543;-72
2022/08/18 04:32:27;;;;;;;13.13;11.80;;;22.20;94.90;;;22.78;62.16;100454.91;5011057;28;20811;-72
2022/08/18 04:34:58;;;;;;;15.07;13.17;;;22.20;94.70;;;22.87;61.70;100453.13;5010273;28;20531;-72
2022/08/18 04:37:31;;;;;;;16.37;14.63;;;22.40;92.40;;;22.93;61.29;100449.19;5010195;28;20437;-72
2022/08/18 04:40:09;;;;;;;14.50;13.10;;;22.50;90.80;;;23.04;61.06;100449.06;5011247;28;20944;-72
2022/08/18 04:42:40;;;;;;;15.07;12.90;;;22.60;90.40;;;23.06;61.32;100444.06;5015169;28;20943;-71
2022/08/18 04:45:12;;;;;;;19.83;14.40;;;22.60;89.60;;;23.10;60.88;100445.94;5006436;28;20433;-72
2022/08/18 04:47:43;;;;;;;17.37;13.80;;;22.70;86.80;;;23.15;60.99;100445.88;5007899;28;20433;-72
2022/08/18 04:50:13;;;;;;;17.87;13.70;;;22.70;87.00;;;23.22;60.88;100449.09;5010583;28;20444;-72
2022/08/18 04:55:30;;;;;;;17.20;14.27;;;22.90;86.50;;;23.53;59.94;100451.47;5016459;28;20450;-73
2022/08/18 04:57:59;;;;;;;24.23;12.90;;;23.00;83.10;;;23.66;59.97;100459.81;5014981;28;20440;-72
2022/08/18 05:00:28;;;;;;;15.47;13.87;;;23.10;83.50;;;23.83;59.13;100453.75;5017269;28;20448;-72
2022/08/18 05:02:59;;;;;;;18.73;14.07;;;23.30;78.00;;;24.10;58.38;100458.56;5018151;28;20543;-72
2022/08/18 05:05:28;;;;;;;17.90;13.60;;;23.40;75.20;;;24.48;57.40;100457.34;5009805;28;20993;-71
2022/08/18 05:07:57;;;;;;;15.20;13.70;;;23.60;71.40;;;24.95;56.43;100461.72;5014407;28;20956;-72
2022/08/18 05:10:26;;;;;;;13.40;12.00;;;23.90;68.20;;;25.27;55.62;100462.72;5011370;28;20789;-72
2022/08/18 05:12:56;;;;;;;16.37;14.87;;;24.10;63.60;;;25.28;55.01;100462.38;5014073;28;20449;-72
2022/08/18 05:15:25;;;;;;;13.27;11.97;;;24.30;58.00;;;25.16;54.62;100464.06;5017653;28;20472;-72
2022/08/18 05:17:55;;;;;;;16.00;14.27;;;24.30;53.40;;;25.00;55.88;100471.84;5012334;28;20511;-72
2022/08/18 05:20:27;;;;;;;14.90;13.30;;;24.30;56.20;;;24.90;56.16;100467.34;5013787;28;20443;-72
2022/08/18 05:22:57;;;;;;;17.33;14.60;;;24.30;54.70;;;24.75;56.62;100469.56;5011727;28;20487;-73
2022/08/18 05:25:28;;;;;;;16.37;14.70;;;24.20;55.20;;;24.73;55.69;100467.13;5014922;28;20420;-72
2022/08/18 05:27:57;;;;;;;15.00;13.40;;;24.20;51.90;;;24.62;55.73;100472.03;5016911;28;20478;-72
2022/08/18 05:30:26;;;;;;;15.83;13.37;;;24.10;51.60;;;24.57;56.71;100480.41;5008144;28;20415;-72
2022/08/18 05:32:56;;;;;;;16.30;14.60;;;24.10;54.50;;;24.72;56.49;100486.78;5009018;28;20446;-72
2022/08/18 05:35:33;;;;;;;14.83;13.33;;;24.10;54.40;;;24.59;56.46;100489.22;5013185;28;20557;-73
2022/08/18 05:38:47;;;;;;;14.77;13.17;;;24.10;53.00;;;24.56;56.18;100489.84;5015600;28;20459;-73
2022/08/18 05:41:24;;;;;;;15.27;13.53;;;24.10;51.30;;;24.59;56.23;100485.66;5008011;28;20448;-72
2022/08/18 05:43:55;;;;;;;15.47;13.97;;;24.20;51.00;;;24.70;55.44;100489.84;5008720;28;20844;-72
2022/08/18 05:46:36;;;;;;;14.97;13.47;;;24.20;49.30;;;24.76;55.69;100482.28;5014518;28;20437;-73
2022/08/18 05:49:07;;;;;;;19.07;15.17;;;24.30;48.80;;;24.90;54.99;100483.94;5023177;28;20533;-72
2022/08/18 05:51:44;;;;;;;16.63;14.73;;;24.40;47.30;;;24.99;55.01;100486.81;5007058;28;20465;-72
2022/08/18 05:57:08;;;;;;;20.17;15.20;;;24.60;45.50;;;25.02;55.09;100494.53;5015467;28;20487;-72
2022/08/18 05:59:42;;;;;;;15.70;14.10;;;24.60;45.40;;;25.16;54.95;100488.97;5013885;28;20464;-73
2022/08/18 06:02:24;;;;;;;15.70;13.90;;;24.70;45.90;;;25.08;56.04;100487.72;5021166;28;20443;-71
2022/08/18 06:04:58;;;;;;;15.30;13.80;;;24.60;47.70;;;25.07;56.81;100489.72;5008990;28;20822;-73
2022/08/18 06:07:41;;;;;;;21.30;14.50;;;24.60;51.20;;;25.06;57.06;100492.78;5014130;28;20440;-72
2022/08/18 06:10:12;;;;;;;18.30;16.57;;;24.70;51.60;;;25.07;56.72;100499.97;5011743;28;20493;-72
2022/08/18 06:12:57;;;;;;;15.43;14.00;;;24.70;51.60;;;25.00;55.90;100500.34;5022589;28;20437;-72
2022/08/18 06:15:44;;;;;;;15.87;14.20;;;24.70;47.90;;;24.91;57.86;100506.91;5020140;28;20513;-71
2022/08/18 06:18:43;;;;;;;16.97;15.37;;;24.60;52.90;;;25.22;56.29;100509.91;5016584;28;20530;-72
2022/08/18 06:21:40;;;;;;;18.67;15.70;;;24.80;52.40;;;25.63;55.57;100515.41;5017273;28;20457;-72
2022/08/18 06:24:29;;;;;;;16.60;14.53;;;25.10;50.30;;;25.73;55.36;100520.72;5006412;28;20460;-72
2022/08/18 06:27:19;;;;;;;15.13;13.63;;;25.10;49.40;;;25.81;54.91;100517.19;5009323;28;20433;-71
2022/08/18 06:30:04;;;;;;;17.87;14.33;;;25.30;46.60;;;25.83;54.37;100520.47;5011368;28;20930;-73
2022/08/18 06:33:05;;;;;;;18.70;16.93;;;25.30;45.30;;;25.95;53.62;100515.19;5016667;28;20444;-73
2022/08/18 06:35:41;;;;;;;16.00;14.50;;;25.40;43.50;;;26.02;53.99;100509.22;5016456;28;20551;-72
2022/08/18 06:38:38;;;;;;;20.10;15.53;;;25.50;43.40;;;25.99;53.77;100507.09;5007115;28;20468;-73
2022/08/18 06:41:17;;;;;;;17.30;15.70;;;25.40;42.50;;;26.11;53.60;100508.16;5015209;28;20437;-72
2022/08/18 06:44:09;;;;;;;16.23;14.50;;;25.60;41.70;;;26.13;54.09;100511.44;5013682;28;20461;-73
2022/08/18 06:46:47;;;;;;;16.90;15.30;;;25.60;42.30;;;26.18;53.56;100507.72;5015070;28;20566;-73
2022/08/18 06:49:35;;;;;;;16.20;14.60;;;25.60;40.80;;;26.27;53.30;100515.00;5013552;28;20441;-73
2022/08/18 06:52:32;;;;;;;17.03;15.30;;;25.60;40.70;;;26.36;53.38;100515.88;5012472;28;20459;-73
2022/08/18 06:55:05;;;;;;;17.70;15.93;;;25.60;41.50;;;26.33;52.91;100510.97;5001241;28;20476;-72
2022/08/18 06:57:39;;;;;;;17.47;15.67;;;25.70;38.70;;;26.30;52.73;100517.13;5015664;28;20504;-72
2022/08/18 07:00:22;;;;;;;17.47;15.67;;;25.60;38.00;;;26.35;53.06;100517.00;5021008;28;20476;-73
2022/08/18 07:02:58;;;;;;;18.20;15.30;;;25.80;38.50;;;26.43;52.92;100511.84;5022698;28;20444;-71
2022/08/18 07:05:30;;;;;;;16.80;15.10;;;25.90;37.70;;;26.28;53.02;100524.13;5018922;28;20444;-72
2022/08/18 07:08:24;;;;;;;15.73;14.23;;;25.80;37.40;;;26.33;53.38;100516.53;5010643;28;20545;-72
2022/08/18 07:10:54;;;;;;;17.73;15.93;;;25.80;38.90;;;26.50;52.93;100521.34;5006837;28;20491;-72
2022/08/18 07:13:29;;;;;;;16.10;14.47;;;25.90;38.10;;;26.77;52.63;100523.13;5012495;28;20537;-72
2022/08/18 07:16:18;;;;;;;17.77;15.90;;;26.10;37.50;;;26.80;52.42;100517.75;5008585;28;20448;-72
2022/08/18 07:19:08;;;;;;;16.07;14.40;;;26.10;36.20;;;26.82;52.08;100523.78;5013046;28;20441;-72
2022/08/18 07:21:41;;;;;;;16.33;14.47;;;26.20;35.80;;;27.06;51.67;100512.31;5014919;28;20445;-72
2022/08/18 07:24:20;;;;;;;17.10;15.30;;;26.30;35.90;;;26.96;52.32;100518.19;5015753;28;20480;-72
2022/08/18 07:27:02;;;;;;;17.53;15.83;;;26.30;36.70;;;27.08;51.26;100515.59;5013956;28;20429;-72
2022/08/18 07:29:36;;;;;;;23.13;16.70;;;26.40;34.00;;;27.03;51.08;100517.72;5012891;28;20445;-71
2022/08/18 07:32:16;;;;;;;16.83;15.30;;;26.40;32.90;;;27.05;50.85;100518.22;5011145;28;20437;-72
2022/08/18 07:34:57;;;;;;;18.20;15.73;;;26.40;32.40;;;27.12;51.14;100518.56;5016495;28;20452;-73
2022/08/18 07:37:32;;;;;;;16.70;14.53;;;26.30;33.00;;;27.37;50.55;100523.38;5019685;28;20471;-73
2022/08/18 07:40:14;;;;;;;16.73;15.07;;;26.50;32.10;;;27.31;50.42;100518.28;5014132;28;20455;-72
2022/08/18 07:42:53;;;;;;;20.33;15.90;;;26.60;31.30;;;27.40;49.83;100522.72;5008743;28;20476;-72
2022/08/18 07:45:41;;;;;;;17.07;15.50;;;26.70;29.60;;;27.37;50.66;100519.78;5013452;28;20432;-72
2022/08/18 07:48:16;;;;;;;17.20;15.57;;;26.70;30.50;;;27.53;50.56;100521.00;5011752;28;20796;-72
2022/08/18 07:51:22;;;;;;;16.57;14.93;;;26.80;30.20;;;27.64;50.40;100523.13;5013919;28;20463;-72
2022/08/18 07:54:11;;;;;;;18.27;16.37;;;26.80;29.80;;;27.81;49.30;100527.91;5012770;28;20473;-72
2022/08/18 07:57:09;;;;;;;16.57;14.90;;;27.10;28.40;;;28.07;48.28;100520.38;5008705;28;20472;-71
2022/08/18 07:59:48;;;;;;;17.47;15.67;;;27.40;27.10;;;28.10;48.40;100525.28;5010334;28;20786;-72
2022/08/18 08:02:37;;;;;;;17.57;15.77;;;27.50;25.80;;;28.26;48.25;100527.59;5011734;28;20520;-71
2022/08/18 08:05:17;;;;;;;20.63;14.80;;;27.60;25.30;;;28.54;47.75;100528.84;5012781;28;20468;-72
2022/08/18 08:07:58;;;;;;;18.40;15.17;;;27.80;24.20;;;28.52;47.26;100531.13;5005522;28;20445;-71
2022/08/18 08:10:40;;;;;;;16.67;15.07;;;27.80;23.40;;;28.50;47.92;100539.03;5012748;28;20457;-72
2022/08/18 08:13:23;;;;;;;17.90;14.47;;;27.80;23.80;;;28.68;48.00;100543.41;5008992;28;20464;-73
2022/08/18 08:16:28;;;;;;;17.13;15.17;;;27.80;24.80;;;28.77;47.79;100543.41;5016751;28;20452;-71
2022/08/18 08:19:22;;;;;;;21.17;14.47;;;28.00;23.80;;;28.79;47.58;100546.69;5006643;28;20451;-73
2022/08/18 08:22:21;;;;;;;17.90;16.00;;;28.10;23.30;;;28.76;46.89;100553.72;5007410;28;20448;-72
2022/08/18 08:25:04;;;;;;;17.10;15.50;;;28.20;22.20;;;28.71;47.49;100545.53;5015478;28;20559;-74
2022/08/18 08:28:12;;;;;;;17.40;15.20;;;28.30;22.00;;;28.56;48.15;100548.84;5006579;28;20495;-72
2022/08/18 08:30:50;;;;;;;17.20;15.37;;;28.10;22.30;;;28.44;48.23;100557.03;5013764;28;20434;-71
2022/08/18 08:33:30;;;;;;;17.57;16.07;;;28.00;22.20;;;28.54;48.02;100553.91;5010109;28;20558;-71
2022/08/18 08:36:11;;;;;;;19.00;17.20;;;28.10;22.10;;;28.64;47.73;100545.22;5013777;28;20448;-71
2022/08/18 08:38:47;;;;;;;16.97;15.27;;;28.10;22.10;;;28.62;48.04;100555.03;5022129;28;20464;-73
2022/08/18 08:41:26;;;;;;;16.60;14.90;;;28.00;22.60;;;28.76;48.13;100552.91;5012306;28;20432;-71
2022/08/18 08:44:06;;;;;;;25.33;16.00;;;28.20;22.20;;;28.98;46.98;100554.63;5009441;28;20464;-72
2022/08/18 08:46:46;;;;;;;16.97;15.37;;;28.30;21.70;;;29.11;47.21;100556.38;5015876;28;20554;-71
2022/08/18 08:49:36;;;;;;;18.03;15.70;;;28.30;21.90;;;29.14;47.43;100547.38;5022031;28;20543;-73
2022/08/18 08:52:16;;;;;;;18.40;16.47;;;28.40;21.40;;;29.42;47.18;100562.50;5016368;28;20442;-73
2022/08/18 08:54:53;;;;;;;17.33;15.53;;;28.60;21.80;;;29.46;46.33;100555.09;5016284;28;20522;-72
2022/08/18 08:57:33;;;;;;;19.27;16.50;;;28.70;20.00;;;29.48;46.38;100550.00;5018175;28;20474;-72
2022/08/18 09:00:10;;;;;;;18.00;16.40;;;28.70;20.40;;;29.66;46.13;100547.94;5014644;28;20444;-72
2022/08/18 09:03:12;;;;;;;16.67;15.20;;;28.70;20.30;;;29.53;45.96;100547.00;5020370;28;20538;-72
2022/08/18 09:05:56;;;;;;;15.70;14.10;;;28.90;19.70;;;29.69;45.43;100545.28;5018029;28;20448;-72
2022/08/18 09:09:14;;;;;;;16.97;15.30;;;29.10;18.40;;;29.32;46.22;100532.22;5024675;28;20451;-73
2022/08/18 09:12:23;;;;;;;20.33;16.37;;;29.10;17.90;;;29.54;45.56;100534.69;5014879;28;20437;-73
2022/08/18 09:15:35;;;;;;;15.83;14.23;;;28.90;18.40;;;29.68;45.38;100535.25;5029934;28;20572;-72
2022/08/18 09:18:28;;;;;;;21.83;16.70;;;29.10;18.10;;;29.28;46.28;100539.59;5015099;28;20465;-72
2022/08/18 09:21:17;;;;;;;16.77;14.50;;;28.90;17.80;;;29.12;46.71;100530.97;5006524;28;20436;-72
2022/08/18 09:23:52;;;;;;;17.80;15.90;;;28.90;17.90;;;29.24;46.63;100524.72;5014500;28;20467;-72
2022/08/18 09:26:42;;;;;;;17.23;15.27;;;28.70;18.10;;;29.54;45.53;100529.13;5013522;28;20446;-72
2022/08/18 09:29:23;;;;;;;14.50;13.30;;;28.80;17.50;;;29.84;44.55;100521.53;5012270;28;20535;-72
2022/08/18 09:32:37;;;;;;;16.87;15.13;;;29.00;16.70;;;29.68;42.34;100524.09;5014851;28;20458;-73
2022/08/18 09:35:29;;;;;;;15.17;13.60;;;29.30;14.50;;;30.38;42.58;100514.03;5010122;28;20713;-72
2022/08/18 09:44:10;;;;;;;14.37;13.07;;;30.00;12.20;;;30.48;41.80;100519.22;5016903;28;20804;-72
2022/08/18 09:47:00;;;;;;;14.83;13.47;;;30.00;11.20;;;30.93;40.66;100518.38;5013804;28;20895;-72
2022/08/18 09:49:49;;;;;;;18.53;12.20;;;30.10;10.30;;;30.88;40.58;100504.63;5017837;28;20920;-72
2022/08/18 09:52:58;;;;;;;13.87;12.30;;;30.00;9.80;;;30.63;41.50;100507.38;5011020;28;20449;-72
2022/08/18 09:55:57;;;;;;;14.17;12.80;;;29.80;10.30;;;31.31;40.54;100498.50;5008580;28;20472;-71
2022/08/18 09:59:01;;;;;;;14.50;13.10;;;30.40;9.80;;;31.62;40.51;100507.09;5012592;28;20473;-71
2022/08/18 10:01:42;;;;;;;15.33;13.83;;;30.70;9.70;;;31.84;39.87;100505.75;5011263;28;20938;-72
2022/08/18 10:04:32;;;;;;;16.10;14.67;;;31.00;8.90;;;32.01;39.08;100507.44;5021091;28;20823;-72
2022/08/18 10:07:29;;;;;;;16.50;14.93;;;31.00;8.10;;;31.92;39.14;100499.19;5017285;28;20856;-73
2022/08/18 10:10:21;;;;;;;15.70;12.90;;;31.20;7.50;;;32.09;39.09;100498.91;5021454;28;20871;-72
2022/08/18 10:13:22;;;;;;;16.30;14.70;;;31.20;6.80;;;31.83;39.67;100490.13;5012424;28;20551;-73
2022/08/18 10:16:16;;;;;;;15.30;12.73;;;31.20;7.00;;;31.79;40.17;100481.66;5014924;28;20437;-73
2022/08/18 10:19:12;;;;;;;14.50;12.60;;;31.30;7.10;;;32.09;38.32;100482.13;5009497;28;20469;-71
2022/08/18 10:22:11;;;;;;;14.03;11.90;;;31.50;5.30;;;31.93;38.05;100478.44;5017636;28;20431;-71
2022/08/18 10:24:53;;;;;;;12.30;11.20;;;31.20;4.60;;;31.92;38.06;100486.03;4935485;29;20474;-72
2022/08/18 10:27:48;;;;;;;14.07;12.50;;;31.30;4.30;;;32.60;37.58;100479.53;5004514;28;20463;-71
2022/08/18 10:31:03;;;;;;;14.23;12.80;;;31.50;4.60;;;32.47;37.13;100480.78;5013074;28;20440;-73
2022/08/18 10:34:07;;;;;;;12.90;11.50;;;31.90;3.30;;;32.42;36.94;100489.44;5008901;28;20467;-72
2022/08/18 10:36:56;;;;;;;12.50;11.20;;;32.00;2.30;;;32.16;36.77;100485.13;5014974;28;20532;-72
2022/08/18 10:39:45;;;;;;;15.03;10.40;;;31.70;1.80;;;31.87;36.44;100489.06;5015165;28;20476;-73
2022/08/18 10:42:27;;;;;;;11.83;10.73;;;31.50;1.20;;;31.73;36.84;100499.03;5013544;28;20452;-73
2022/08/18 10:45:25;;;;;;;11.80;10.37;;;31.20;1.30;;;31.34;37.54;100495.81;5011245;28;20443;-72
2022/08/18 10:48:14;;;;;;;12.60;11.50;;;31.10;1.60;;;31.54;36.84;100487.63;5014670;28;20444;-72
2022/08/18 10:50:53;;;;;;;11.43;10.43;;;31.10;1.00;;;31.95;36.92;100495.72;5012187;28;20435;-71
2022/08/18 10:53:39;;;;;;;11.17;10.07;;;31.30;1.60;;;32.46;36.05;100484.75;5006486;28;20480;-73
2022/08/18 10:56:40;;;;;;;12.63;11.43;;;31.60;1.00;;;32.89;34.84;100481.91;5011673;28;20476;-72
2022/08/18 10:59:25;;;;;;;11.80;10.77;;;32.10;1.00;;;32.97;34.89;100478.09;5013099;28;20486;-73
2022/08/18 11:02:14;;;;;;;11.43;10.30;;;32.20;1.00;;;32.97;35.05;100478.09;5012396;28;20465;-73
2022/08/18 11:04:48;;;;;;;12.87;11.53;;;32.40;1.00;;;33.26;34.09;100479.63;5014413;28;20566;-73